sensor_id;sensor_type;location;lat;lon;timestamp;P1;durP1;ratioP1;P2;durP2;ratioP2
63567;SDS011;49715;42.386;20.434;2022-08-14T00:00:57;9.10;;;8.07;;
63567;SDS011;49715;42.386;20.434;2022-08-14T00:03:27;8.43;;;6.95;;
63567;SDS011;49715;42.386;20.434;2022-08-14T00:06:00;8.95;;;7.55;;
63567;SDS011;49715;42.386;20.434;2022-08-14T00:08:27;7.97;;;7.18;;
63567;SDS011;49715;42.386;20.434;2022-08-14T00:10:55;8.60;;;7.70;;
63567;SDS011;49715;42.386;20.434;2022-08-14T00:13:22;8.10;;;7.30;;
63567;SDS011;49715;42.386;20.434;2022-08-14T00:15:54;8.75;;;7.63;;
63567;SDS011;49715;42.386;20.434;2022-08-14T00:18:24;8.10;;;7.30;;
63567;SDS011;49715;42.386;20.434;2022-08-14T00:20:51;8.75;;;7.90;;
63567;SDS011;49715;42.386;20.434;2022-08-14T00:23:19;8.40;;;7.47;;
63567;SDS011;49715;42.386;20.434;2022-08-14T00:25:47;10.55;;;8.02;;
63567;SDS011;49715;42.386;20.434;2022-08-14T00:28:16;7.75;;;7.05;;
63567;SDS011;49715;42.386;20.434;2022-08-14T00:30:45;7.65;;;6.85;;
63567;SDS011;49715;42.386;20.434;2022-08-14T00:33:12;11.00;;;7.70;;
63567;SDS011;49715;42.386;20.434;2022-08-14T00:35:38;14.32;;;8.10;;
63567;SDS011;49715;42.386;20.434;2022-08-14T00:38:05;10.80;;;8.52;;
63567;SDS011;49715;42.386;20.434;2022-08-14T00:40:31;8.00;;;7.13;;
63567;SDS011;49715;42.386;20.434;2022-08-14T00:42:58;11.68;;;8.77;;
63567;SDS011;49715;42.386;20.434;2022-08-14T00:45:24;8.55;;;7.22;;
63567;SDS011;49715;42.386;20.434;2022-08-14T00:47:53;11.63;;;8.18;;
63567;SDS011;49715;42.386;20.434;2022-08-14T00:50:19;8.77;;;7.38;;
63567;SDS011;49715;42.386;20.434;2022-08-14T00:52:47;8.90;;;8.00;;
63567;SDS011;49715;42.386;20.434;2022-08-14T00:55:17;11.75;;;8.20;;
63567;SDS011;49715;42.386;20.434;2022-08-14T00:57:45;9.10;;;8.20;;
63567;SDS011;49715;42.386;20.434;2022-08-14T01:00:32;9.57;;;7.88;;
63567;SDS011;49715;42.386;20.434;2022-08-14T01:02:59;9.27;;;8.25;;
63567;SDS011;49715;42.386;20.434;2022-08-14T01:05:26;12.70;;;8.23;;
63567;SDS011;49715;42.386;20.434;2022-08-14T01:07:54;10.68;;;7.93;;
63567;SDS011;49715;42.386;20.434;2022-08-14T01:10:25;9.85;;;8.85;;
63567;SDS011;49715;42.386;20.434;2022-08-14T01:13:13;10.05;;;8.50;;
63567;SDS011;49715;42.386;20.434;2022-08-14T01:15:45;9.73;;;8.73;;
63567;SDS011;49715;42.386;20.434;2022-08-14T01:18:13;9.73;;;8.05;;
63567;SDS011;49715;42.386;20.434;2022-08-14T01:20:59;9.85;;;8.85;;
63567;SDS011;49715;42.386;20.434;2022-08-14T01:23:29;9.60;;;8.60;;
63567;SDS011;49715;42.386;20.434;2022-08-14T01:25:56;11.90;;;9.60;;
63567;SDS011;49715;42.386;20.434;2022-08-14T01:30:53;12.63;;;9.55;;
63567;SDS011;49715;42.386;20.434;2022-08-14T01:33:23;10.82;;;9.82;;
63567;SDS011;49715;42.386;20.434;2022-08-14T01:35:57;10.98;;;9.88;;
63567;SDS011;49715;42.386;20.434;2022-08-14T01:38:27;10.60;;;9.50;;
63567;SDS011;49715;42.386;20.434;2022-08-14T01:41:01;12.43;;;10.20;;
63567;SDS011;49715;42.386;20.434;2022-08-14T01:43:28;11.25;;;9.65;;
63567;SDS011;49715;42.386;20.434;2022-08-14T01:48:23;13.48;;;9.65;;
63567;SDS011;49715;42.386;20.434;2022-08-14T01:50:50;10.63;;;9.63;;
63567;SDS011;49715;42.386;20.434;2022-08-14T01:53:16;13.80;;;11.27;;
63567;SDS011;49715;42.386;20.434;2022-08-14T01:55:43;14.48;;;12.00;;
63567;SDS011;49715;42.386;20.434;2022-08-14T01:58:10;18.92;;;12.40;;
63567;SDS011;49715;42.386;20.434;2022-08-14T02:00:38;16.52;;;11.90;;
63567;SDS011;49715;42.386;20.434;2022-08-14T02:03:05;18.38;;;11.77;;
63567;SDS011;49715;42.386;20.434;2022-08-14T02:05:32;19.08;;;12.80;;
63567;SDS011;49715;42.386;20.434;2022-08-14T02:08:00;18.63;;;12.85;;
63567;SDS011;49715;42.386;20.434;2022-08-14T02:10:27;18.17;;;13.70;;
63567;SDS011;49715;42.386;20.434;2022-08-14T02:15:22;28.10;;;15.90;;
63567;SDS011;49715;42.386;20.434;2022-08-14T02:17:49;24.63;;;14.07;;
63567;SDS011;49715;42.386;20.434;2022-08-14T02:20:16;16.05;;;12.23;;
63567;SDS011;49715;42.386;20.434;2022-08-14T02:25:11;24.02;;;17.52;;
63567;SDS011;49715;42.386;20.434;2022-08-14T02:27:37;20.02;;;13.90;;
63567;SDS011;49715;42.386;20.434;2022-08-14T02:30:06;14.68;;;11.65;;
63567;SDS011;49715;42.386;20.434;2022-08-14T02:35:01;19.23;;;11.85;;
63567;SDS011;49715;42.386;20.434;2022-08-14T02:37:28;15.35;;;11.65;;
63567;SDS011;49715;42.386;20.434;2022-08-14T02:39:54;13.48;;;11.65;;
63567;SDS011;49715;42.386;20.434;2022-08-14T02:42:22;13.40;;;10.18;;
63567;SDS011;49715;42.386;20.434;2022-08-14T02:44:50;17.95;;;11.75;;
63567;SDS011;49715;42.386;20.434;2022-08-14T02:47:16;15.40;;;10.80;;
63567;SDS011;49715;42.386;20.434;2022-08-14T02:49:44;15.90;;;13.18;;
63567;SDS011;49715;42.386;20.434;2022-08-14T02:52:10;12.02;;;10.93;;
63567;SDS011;49715;42.386;20.434;2022-08-14T02:54:37;13.00;;;11.60;;
63567;SDS011;49715;42.386;20.434;2022-08-14T02:57:05;12.70;;;11.40;;
63567;SDS011;49715;42.386;20.434;2022-08-14T02:59:33;17.38;;;10.45;;
63567;SDS011;49715;42.386;20.434;2022-08-14T03:02:02;12.60;;;11.27;;
63567;SDS011;49715;42.386;20.434;2022-08-14T03:04:29;12.80;;;11.50;;
63567;SDS011;49715;42.386;20.434;2022-08-14T03:06:55;13.00;;;10.98;;
63567;SDS011;49715;42.386;20.434;2022-08-14T03:14:15;13.35;;;11.77;;
63567;SDS011;49715;42.386;20.434;2022-08-14T03:16:42;13.63;;;12.43;;
63567;SDS011;49715;42.386;20.434;2022-08-14T03:19:10;13.48;;;12.05;;
63567;SDS011;49715;42.386;20.434;2022-08-14T03:21:36;13.25;;;11.15;;
63567;SDS011;49715;42.386;20.434;2022-08-14T03:24:04;12.20;;;11.00;;
63567;SDS011;49715;42.386;20.434;2022-08-14T03:26:38;12.52;;;11.32;;
63567;SDS011;49715;42.386;20.434;2022-08-14T03:29:06;15.27;;;12.13;;
63567;SDS011;49715;42.386;20.434;2022-08-14T03:31:33;14.70;;;13.18;;
63567;SDS011;49715;42.386;20.434;2022-08-14T03:34:01;13.30;;;11.43;;
63567;SDS011;49715;42.386;20.434;2022-08-14T03:36:29;13.55;;;12.15;;
63567;SDS011;49715;42.386;20.434;2022-08-14T03:38:57;12.95;;;11.68;;
63567;SDS011;49715;42.386;20.434;2022-08-14T03:41:25;13.18;;;11.90;;
63567;SDS011;49715;42.386;20.434;2022-08-14T03:43:54;13.10;;;11.77;;
63567;SDS011;49715;42.386;20.434;2022-08-14T03:46:27;13.00;;;11.73;;
63567;SDS011;49715;42.386;20.434;2022-08-14T03:48:55;16.40;;;12.88;;
63567;SDS011;49715;42.386;20.434;2022-08-14T03:53:57;15.77;;;11.60;;
63567;SDS011;49715;42.386;20.434;2022-08-14T03:56:25;12.32;;;11.13;;
63567;SDS011;49715;42.386;20.434;2022-08-14T03:58:56;12.82;;;11.50;;
63567;SDS011;49715;42.386;20.434;2022-08-14T04:01:28;12.65;;;10.95;;
63567;SDS011;49715;42.386;20.434;2022-08-14T04:03:55;13.93;;;11.68;;
63567;SDS011;49715;42.386;20.434;2022-08-14T04:06:24;13.35;;;11.43;;
63567;SDS011;49715;42.386;20.434;2022-08-14T04:08:50;12.85;;;11.25;;
63567;SDS011;49715;42.386;20.434;2022-08-14T04:11:19;16.92;;;11.70;;
63567;SDS011;49715;42.386;20.434;2022-08-14T04:16:13;12.57;;;11.27;;
63567;SDS011;49715;42.386;20.434;2022-08-14T04:18:43;12.13;;;11.07;;
63567;SDS011;49715;42.386;20.434;2022-08-14T04:21:11;13.07;;;11.25;;
63567;SDS011;49715;42.386;20.434;2022-08-14T04:23:40;12.73;;;11.43;;
63567;SDS011;49715;42.386;20.434;2022-08-14T04:26:14;12.43;;;11.13;;
63567;SDS011;49715;42.386;20.434;2022-08-14T04:28:44;12.70;;;11.50;;
63567;SDS011;49715;42.386;20.434;2022-08-14T04:33:37;12.85;;;11.13;;
63567;SDS011;49715;42.386;20.434;2022-08-14T04:36:05;12.00;;;10.77;;
63567;SDS011;49715;42.386;20.434;2022-08-14T04:38:31;13.32;;;10.48;;
63567;SDS011;49715;42.386;20.434;2022-08-14T04:41:16;13.45;;;12.02;;
63567;SDS011;49715;42.386;20.434;2022-08-14T04:44:02;13.63;;;12.07;;
63567;SDS011;49715;42.386;20.434;2022-08-14T04:46:30;14.00;;;12.07;;
63567;SDS011;49715;42.386;20.434;2022-08-14T04:48:59;14.43;;;12.95;;
63567;SDS011;49715;42.386;20.434;2022-08-14T04:51:27;13.95;;;12.55;;
63567;SDS011;49715;42.386;20.434;2022-08-14T04:58:48;15.98;;;14.27;;
63567;SDS011;49715;42.386;20.434;2022-08-14T05:01:16;21.27;;;18.02;;
63567;SDS011;49715;42.386;20.434;2022-08-14T05:03:42;20.08;;;15.63;;
63567;SDS011;49715;42.386;20.434;2022-08-14T05:06:09;22.80;;;17.20;;
63567;SDS011;49715;42.386;20.434;2022-08-14T05:08:37;13.38;;;12.00;;
63567;SDS011;49715;42.386;20.434;2022-08-14T05:11:04;13.60;;;12.20;;
63567;SDS011;49715;42.386;20.434;2022-08-14T05:13:33;14.90;;;12.50;;
63567;SDS011;49715;42.386;20.434;2022-08-14T05:16:02;16.13;;;14.52;;
63567;SDS011;49715;42.386;20.434;2022-08-14T05:18:31;18.83;;;15.90;;
63567;SDS011;49715;42.386;20.434;2022-08-14T05:21:04;18.48;;;16.65;;
63567;SDS011;49715;42.386;20.434;2022-08-14T05:23:33;15.68;;;14.07;;
63567;SDS011;49715;42.386;20.434;2022-08-14T05:26:02;15.82;;;14.23;;
63567;SDS011;49715;42.386;20.434;2022-08-14T05:28:32;13.90;;;11.30;;
63567;SDS011;49715;42.386;20.434;2022-08-14T05:31:01;11.20;;;10.02;;
63567;SDS011;49715;42.386;20.434;2022-08-14T05:33:29;12.90;;;10.68;;
63567;SDS011;49715;42.386;20.434;2022-08-14T05:35:58;14.00;;;11.18;;
63567;SDS011;49715;42.386;20.434;2022-08-14T05:38:30;11.77;;;10.02;;
63567;SDS011;49715;42.386;20.434;2022-08-14T05:41:00;11.32;;;10.15;;
63567;SDS011;49715;42.386;20.434;2022-08-14T05:43:31;15.25;;;13.65;;
63567;SDS011;49715;42.386;20.434;2022-08-14T05:45:58;12.93;;;10.00;;
63567;SDS011;49715;42.386;20.434;2022-08-14T05:48:26;9.20;;;8.30;;
63567;SDS011;49715;42.386;20.434;2022-08-14T05:50:53;7.15;;;6.45;;
63567;SDS011;49715;42.386;20.434;2022-08-14T05:53:21;6.40;;;5.80;;
63567;SDS011;49715;42.386;20.434;2022-08-14T05:55:49;7.28;;;6.05;;
63567;SDS011;49715;42.386;20.434;2022-08-14T05:58:16;5.60;;;5.05;;
63567;SDS011;49715;42.386;20.434;2022-08-14T06:00:42;6.97;;;5.65;;
63567;SDS011;49715;42.386;20.434;2022-08-14T06:03:12;7.18;;;6.47;;
63567;SDS011;49715;42.386;20.434;2022-08-14T06:05:47;7.70;;;5.93;;
63567;SDS011;49715;42.386;20.434;2022-08-14T06:08:26;9.07;;;6.03;;
63567;SDS011;49715;42.386;20.434;2022-08-14T06:10:59;6.20;;;5.60;;
63567;SDS011;49715;42.386;20.434;2022-08-14T06:13:37;6.05;;;5.55;;
63567;SDS011;49715;42.386;20.434;2022-08-14T06:16:06;11.05;;;5.70;;
63567;SDS011;49715;42.386;20.434;2022-08-14T06:18:32;6.15;;;5.57;;
63567;SDS011;49715;42.386;20.434;2022-08-14T06:21:00;8.50;;;5.80;;
63567;SDS011;49715;42.386;20.434;2022-08-14T06:23:31;6.18;;;5.65;;
63567;SDS011;49715;42.386;20.434;2022-08-14T06:25:58;6.72;;;6.05;;
63567;SDS011;49715;42.386;20.434;2022-08-14T06:28:24;6.30;;;5.78;;
63567;SDS011;49715;42.386;20.434;2022-08-14T06:30:52;6.38;;;5.65;;
63567;SDS011;49715;42.386;20.434;2022-08-14T06:35:46;6.30;;;5.70;;
63567;SDS011;49715;42.386;20.434;2022-08-14T06:38:15;7.25;;;5.45;;
63567;SDS011;49715;42.386;20.434;2022-08-14T06:40:43;9.25;;;5.53;;
63567;SDS011;49715;42.386;20.434;2022-08-14T06:43:11;7.38;;;5.60;;
63567;SDS011;49715;42.386;20.434;2022-08-14T06:48:15;6.85;;;5.25;;
63567;SDS011;49715;42.386;20.434;2022-08-14T06:50:42;9.02;;;6.70;;
63567;SDS011;49715;42.386;20.434;2022-08-14T06:53:09;7.55;;;6.75;;
63567;SDS011;49715;42.386;20.434;2022-08-14T06:55:36;6.97;;;6.28;;
63567;SDS011;49715;42.386;20.434;2022-08-14T06:58:03;10.32;;;7.53;;
63567;SDS011;49715;42.386;20.434;2022-08-14T07:00:29;10.35;;;8.52;;
63567;SDS011;49715;42.386;20.434;2022-08-14T07:02:56;9.15;;;8.18;;
63567;SDS011;49715;42.386;20.434;2022-08-14T07:05:40;12.95;;;8.52;;
63567;SDS011;49715;42.386;20.434;2022-08-14T07:08:24;10.02;;;8.57;;
63567;SDS011;49715;42.386;20.434;2022-08-14T07:10:53;11.23;;;10.03;;
63567;SDS011;49715;42.386;20.434;2022-08-14T07:13:23;13.07;;;9.27;;
63567;SDS011;49715;42.386;20.434;2022-08-14T07:15:52;11.25;;;10.05;;
63567;SDS011;49715;42.386;20.434;2022-08-14T07:18:20;13.65;;;9.93;;
63567;SDS011;49715;42.386;20.434;2022-08-14T07:20:48;12.48;;;9.30;;
63567;SDS011;49715;42.386;20.434;2022-08-14T07:23:15;10.45;;;8.40;;
63567;SDS011;49715;42.386;20.434;2022-08-14T07:30:36;7.93;;;6.65;;
63567;SDS011;49715;42.386;20.434;2022-08-14T07:33:04;8.25;;;7.28;;
63567;SDS011;49715;42.386;20.434;2022-08-14T07:35:33;9.15;;;6.97;;
63567;SDS011;49715;42.386;20.434;2022-08-14T07:38:03;8.55;;;6.70;;
63567;SDS011;49715;42.386;20.434;2022-08-14T07:40:30;9.38;;;7.15;;
63567;SDS011;49715;42.386;20.434;2022-08-14T07:42:57;10.52;;;7.07;;
63567;SDS011;49715;42.386;20.434;2022-08-14T07:45:24;9.05;;;7.13;;
63567;SDS011;49715;42.386;20.434;2022-08-14T07:47:50;7.63;;;6.45;;
63567;SDS011;49715;42.386;20.434;2022-08-14T07:50:17;7.63;;;6.78;;
63567;SDS011;49715;42.386;20.434;2022-08-14T07:52:46;8.98;;;6.97;;
63567;SDS011;49715;42.386;20.434;2022-08-14T07:55:14;7.68;;;6.97;;
63567;SDS011;49715;42.386;20.434;2022-08-14T07:57:43;7.18;;;6.57;;
63567;SDS011;49715;42.386;20.434;2022-08-14T08:00:12;8.20;;;7.20;;
63567;SDS011;49715;42.386;20.434;2022-08-14T08:02:42;9.13;;;7.97;;
63567;SDS011;49715;42.386;20.434;2022-08-14T08:05:10;9.15;;;7.60;;
63567;SDS011;49715;42.386;20.434;2022-08-14T08:07:38;9.18;;;7.45;;
63567;SDS011;49715;42.386;20.434;2022-08-14T08:10:08;11.50;;;8.18;;
63567;SDS011;49715;42.386;20.434;2022-08-14T08:13:00;12.55;;;8.43;;
63567;SDS011;49715;42.386;20.434;2022-08-14T08:15:35;10.20;;;7.82;;
63567;SDS011;49715;42.386;20.434;2022-08-14T08:18:04;13.32;;;8.07;;
63567;SDS011;49715;42.386;20.434;2022-08-14T08:20:33;10.48;;;7.50;;
63567;SDS011;49715;42.386;20.434;2022-08-14T08:23:01;9.20;;;7.28;;
63567;SDS011;49715;42.386;20.434;2022-08-14T08:25:30;10.40;;;7.63;;
63567;SDS011;49715;42.386;20.434;2022-08-14T08:28:08;13.07;;;8.25;;
63567;SDS011;49715;42.386;20.434;2022-08-14T08:30:38;13.18;;;7.85;;
63567;SDS011;49715;42.386;20.434;2022-08-14T08:33:07;9.77;;;7.50;;
63567;SDS011;49715;42.386;20.434;2022-08-14T08:35:41;10.60;;;6.35;;
63567;SDS011;49715;42.386;20.434;2022-08-14T08:38:10;11.25;;;6.03;;
63567;SDS011;49715;42.386;20.434;2022-08-14T08:40:40;5.88;;;5.28;;
63567;SDS011;49715;42.386;20.434;2022-08-14T08:45:41;5.72;;;5.13;;
63567;SDS011;49715;42.386;20.434;2022-08-14T08:53:08;5.72;;;5.10;;
63567;SDS011;49715;42.386;20.434;2022-08-14T08:55:39;5.85;;;4.45;;
63567;SDS011;49715;42.386;20.434;2022-08-14T09:00:39;5.57;;;5.00;;
63567;SDS011;49715;42.386;20.434;2022-08-14T09:03:11;5.72;;;5.13;;
63567;SDS011;49715;42.386;20.434;2022-08-14T09:05:52;6.10;;;5.30;;
63567;SDS011;49715;42.386;20.434;2022-08-14T09:08:23;8.05;;;5.60;;
63567;SDS011;49715;42.386;20.434;2022-08-14T09:10:52;6.07;;;5.45;;
63567;SDS011;49715;42.386;20.434;2022-08-14T09:13:20;6.63;;;5.43;;
63567;SDS011;49715;42.386;20.434;2022-08-14T09:15:49;6.70;;;5.57;;
63567;SDS011;49715;42.386;20.434;2022-08-14T09:18:16;8.25;;;6.00;;
63567;SDS011;49715;42.386;20.434;2022-08-14T09:20:47;8.23;;;5.97;;
63567;SDS011;49715;42.386;20.434;2022-08-14T09:23:16;6.28;;;5.20;;
63567;SDS011;49715;42.386;20.434;2022-08-14T09:25:45;5.82;;;5.22;;
63567;SDS011;49715;42.386;20.434;2022-08-14T09:28:13;6.13;;;5.45;;
63567;SDS011;49715;42.386;20.434;2022-08-14T09:30:46;5.53;;;5.03;;
63567;SDS011;49715;42.386;20.434;2022-08-14T09:36:17;7.33;;;5.43;;
63567;SDS011;49715;42.386;20.434;2022-08-14T09:39:03;11.52;;;5.95;;
63567;SDS011;49715;42.386;20.434;2022-08-14T09:42:34;5.40;;;4.90;;
63567;SDS011;49715;42.386;20.434;2022-08-14T09:45:16;6.15;;;4.38;;
63567;SDS011;49715;42.386;20.434;2022-08-14T09:50:14;6.68;;;5.10;;
63567;SDS011;49715;42.386;20.434;2022-08-14T09:52:52;5.25;;;4.55;;
63567;SDS011;49715;42.386;20.434;2022-08-14T09:55:22;5.38;;;4.50;;
63567;SDS011;49715;42.386;20.434;2022-08-14T09:57:51;7.60;;;4.38;;
63567;SDS011;49715;42.386;20.434;2022-08-14T10:00:35;6.45;;;4.57;;
63567;SDS011;49715;42.386;20.434;2022-08-14T10:03:23;5.32;;;4.22;;
63567;SDS011;49715;42.386;20.434;2022-08-14T10:06:11;5.43;;;4.43;;
63567;SDS011;49715;42.386;20.434;2022-08-14T10:08:50;5.55;;;4.00;;
63567;SDS011;49715;42.386;20.434;2022-08-14T10:11:26;4.63;;;4.22;;
63567;SDS011;49715;42.386;20.434;2022-08-14T10:13:58;7.00;;;4.57;;
63567;SDS011;49715;42.386;20.434;2022-08-14T10:16:47;4.40;;;4.00;;
63567;SDS011;49715;42.386;20.434;2022-08-14T10:19:16;4.35;;;3.75;;
63567;SDS011;49715;42.386;20.434;2022-08-14T10:21:55;5.05;;;4.28;;
63567;SDS011;49715;42.386;20.434;2022-08-14T10:24:28;3.92;;;3.60;;
63567;SDS011;49715;42.386;20.434;2022-08-14T10:26:56;4.55;;;3.63;;
63567;SDS011;49715;42.386;20.434;2022-08-14T10:29:32;4.28;;;3.80;;
63567;SDS011;49715;42.386;20.434;2022-08-14T10:32:03;4.20;;;3.78;;
63567;SDS011;49715;42.386;20.434;2022-08-14T10:34:31;4.85;;;3.80;;
63567;SDS011;49715;42.386;20.434;2022-08-14T10:37:17;9.02;;;4.85;;
63567;SDS011;49715;42.386;20.434;2022-08-14T10:39:58;6.87;;;4.27;;
63567;SDS011;49715;42.386;20.434;2022-08-14T10:42:38;4.47;;;4.05;;
63567;SDS011;49715;42.386;20.434;2022-08-14T10:45:16;4.32;;;3.40;;
63567;SDS011;49715;42.386;20.434;2022-08-14T10:47:50;5.35;;;4.03;;
63567;SDS011;49715;42.386;20.434;2022-08-14T10:50:31;4.15;;;3.45;;
63567;SDS011;49715;42.386;20.434;2022-08-14T10:53:00;4.03;;;3.70;;
63567;SDS011;49715;42.386;20.434;2022-08-14T10:55:34;5.20;;;3.92;;
63567;SDS011;49715;42.386;20.434;2022-08-14T10:58:06;4.60;;;4.15;;
63567;SDS011;49715;42.386;20.434;2022-08-14T11:00:38;7.30;;;4.25;;
63567;SDS011;49715;42.386;20.434;2022-08-14T11:03:07;4.10;;;3.70;;
63567;SDS011;49715;42.386;20.434;2022-08-14T11:05:39;5.90;;;3.88;;
63567;SDS011;49715;42.386;20.434;2022-08-14T11:08:10;9.88;;;4.70;;
63567;SDS011;49715;42.386;20.434;2022-08-14T11:10:55;5.15;;;4.45;;
63567;SDS011;49715;42.386;20.434;2022-08-14T11:13:24;6.75;;;4.18;;
63567;SDS011;49715;42.386;20.434;2022-08-14T11:15:56;4.38;;;3.85;;
63567;SDS011;49715;42.386;20.434;2022-08-14T11:18:27;4.30;;;3.90;;
63567;SDS011;49715;42.386;20.434;2022-08-14T11:20:59;4.00;;;3.70;;
63567;SDS011;49715;42.386;20.434;2022-08-14T11:23:27;3.97;;;3.55;;
63567;SDS011;49715;42.386;20.434;2022-08-14T11:25:56;4.15;;;3.78;;
63567;SDS011;49715;42.386;20.434;2022-08-14T11:28:25;5.03;;;3.55;;
63567;SDS011;49715;42.386;20.434;2022-08-14T11:30:53;4.47;;;3.90;;
63567;SDS011;49715;42.386;20.434;2022-08-14T11:33:23;3.58;;;3.28;;
63567;SDS011;49715;42.386;20.434;2022-08-14T11:35:57;4.28;;;3.88;;
63567;SDS011;49715;42.386;20.434;2022-08-14T11:38:27;3.85;;;3.45;;
63567;SDS011;49715;42.386;20.434;2022-08-14T11:41:05;4.25;;;3.85;;
63567;SDS011;49715;42.386;20.434;2022-08-14T11:43:39;4.85;;;2.97;;
63567;SDS011;49715;42.386;20.434;2022-08-14T11:46:10;3.40;;;3.10;;
63567;SDS011;49715;42.386;20.434;2022-08-14T11:48:48;2.95;;;2.75;;
63567;SDS011;49715;42.386;20.434;2022-08-14T11:51:19;4.25;;;3.00;;
63567;SDS011;49715;42.386;20.434;2022-08-14T11:53:51;5.13;;;3.25;;
63567;SDS011;49715;42.386;20.434;2022-08-14T11:56:33;3.00;;;2.80;;
63567;SDS011;49715;42.386;20.434;2022-08-14T11:59:06;3.92;;;3.47;;
63567;SDS011;49715;42.386;20.434;2022-08-14T12:01:47;3.10;;;2.80;;
63567;SDS011;49715;42.386;20.434;2022-08-14T12:04:14;2.97;;;2.33;;
63567;SDS011;49715;42.386;20.434;2022-08-14T12:06:53;2.65;;;2.30;;
63567;SDS011;49715;42.386;20.434;2022-08-14T12:09:30;2.10;;;1.90;;
63567;SDS011;49715;42.386;20.434;2022-08-14T12:11:58;2.53;;;2.30;;
63567;SDS011;49715;42.386;20.434;2022-08-14T12:14:26;2.20;;;2.05;;
63567;SDS011;49715;42.386;20.434;2022-08-14T12:17:01;2.50;;;2.20;;
63567;SDS011;49715;42.386;20.434;2022-08-14T12:19:41;4.90;;;2.70;;
63567;SDS011;49715;42.386;20.434;2022-08-14T12:22:12;2.45;;;2.25;;
63567;SDS011;49715;42.386;20.434;2022-08-14T12:24:41;2.20;;;2.00;;
63567;SDS011;49715;42.386;20.434;2022-08-14T12:27:09;2.80;;;2.55;;
63567;SDS011;49715;42.386;20.434;2022-08-14T12:29:37;2.67;;;2.30;;
63567;SDS011;49715;42.386;20.434;2022-08-14T12:32:15;2.63;;;2.38;;
63567;SDS011;49715;42.386;20.434;2022-08-14T12:34:42;2.92;;;2.50;;
63567;SDS011;49715;42.386;20.434;2022-08-14T12:37:09;2.13;;;1.92;;
63567;SDS011;49715;42.386;20.434;2022-08-14T12:39:35;2.30;;;1.52;;
63567;SDS011;49715;42.386;20.434;2022-08-14T12:44:33;4.95;;;1.90;;
63567;SDS011;49715;42.386;20.434;2022-08-14T12:49:28;3.53;;;2.47;;
63567;SDS011;49715;42.386;20.434;2022-08-14T12:51:59;4.10;;;2.15;;
63567;SDS011;49715;42.386;20.434;2022-08-14T12:54:26;2.40;;;2.20;;
63567;SDS011;49715;42.386;20.434;2022-08-14T12:59:34;4.00;;;3.28;;
63567;SDS011;49715;42.386;20.434;2022-08-14T13:02:01;2.17;;;2.05;;
63567;SDS011;49715;42.386;20.434;2022-08-14T13:04:28;2.60;;;1.88;;
63567;SDS011;49715;42.386;20.434;2022-08-14T13:07:00;2.03;;;1.92;;
63567;SDS011;49715;42.386;20.434;2022-08-14T13:09:34;3.78;;;1.92;;
63567;SDS011;49715;42.386;20.434;2022-08-14T13:12:02;4.05;;;2.45;;
63567;SDS011;49715;42.386;20.434;2022-08-14T13:14:30;2.72;;;2.05;;
63567;SDS011;49715;42.386;20.434;2022-08-14T13:16:59;2.63;;;2.08;;
63567;SDS011;49715;42.386;20.434;2022-08-14T13:19:30;2.50;;;1.90;;
63567;SDS011;49715;42.386;20.434;2022-08-14T13:21:57;2.33;;;1.88;;
63567;SDS011;49715;42.386;20.434;2022-08-14T13:24:24;1.83;;;1.58;;
63567;SDS011;49715;42.386;20.434;2022-08-14T13:26:52;1.67;;;1.58;;
63567;SDS011;49715;42.386;20.434;2022-08-14T13:29:27;1.92;;;1.65;;
63567;SDS011;49715;42.386;20.434;2022-08-14T13:31:58;1.60;;;1.50;;
63567;SDS011;49715;42.386;20.434;2022-08-14T13:34:25;2.78;;;1.60;;
63567;SDS011;49715;42.386;20.434;2022-08-14T13:36:54;1.65;;;1.55;;
63567;SDS011;49715;42.386;20.434;2022-08-14T13:39:25;2.65;;;1.60;;
63567;SDS011;49715;42.386;20.434;2022-08-14T13:41:54;3.05;;;1.80;;
63567;SDS011;49715;42.386;20.434;2022-08-14T13:44:25;1.98;;;1.67;;
63567;SDS011;49715;42.386;20.434;2022-08-14T13:46:52;1.73;;;1.60;;
63567;SDS011;49715;42.386;20.434;2022-08-14T13:49:18;1.98;;;1.70;;
63567;SDS011;49715;42.386;20.434;2022-08-14T13:51:46;1.90;;;1.70;;
63567;SDS011;49715;42.386;20.434;2022-08-14T13:54:15;1.95;;;1.75;;
63567;SDS011;49715;42.386;20.434;2022-08-14T13:56:47;3.58;;;1.60;;
63567;SDS011;49715;42.386;20.434;2022-08-14T13:59:14;2.85;;;1.75;;
63567;SDS011;49715;42.386;20.434;2022-08-14T14:01:41;3.55;;;1.58;;
63567;SDS011;49715;42.386;20.434;2022-08-14T14:04:13;2.83;;;2.13;;
63567;SDS011;49715;42.386;20.434;2022-08-14T14:06:48;2.75;;;2.55;;
63567;SDS011;49715;42.386;20.434;2022-08-14T14:09:25;4.45;;;3.42;;
63567;SDS011;49715;42.386;20.434;2022-08-14T14:11:57;4.65;;;3.53;;
63567;SDS011;49715;42.386;20.434;2022-08-14T14:14:24;5.97;;;3.90;;
63567;SDS011;49715;42.386;20.434;2022-08-14T14:16:50;4.90;;;4.43;;
63567;SDS011;49715;42.386;20.434;2022-08-14T14:19:17;5.32;;;4.82;;
63567;SDS011;49715;42.386;20.434;2022-08-14T14:21:48;6.63;;;5.20;;
63567;SDS011;49715;42.386;20.434;2022-08-14T14:24:17;6.35;;;5.85;;
63567;SDS011;49715;42.386;20.434;2022-08-14T14:26:47;5.88;;;5.45;;
63567;SDS011;49715;42.386;20.434;2022-08-14T14:29:14;6.05;;;4.90;;
63567;SDS011;49715;42.386;20.434;2022-08-14T14:31:46;5.93;;;3.80;;
63567;SDS011;49715;42.386;20.434;2022-08-14T14:34:14;4.78;;;3.13;;
63567;SDS011;49715;42.386;20.434;2022-08-14T14:36:42;3.20;;;2.95;;
63567;SDS011;49715;42.386;20.434;2022-08-14T14:39:09;3.10;;;2.80;;
63567;SDS011;49715;42.386;20.434;2022-08-14T14:41:37;3.50;;;2.65;;
63567;SDS011;49715;42.386;20.434;2022-08-14T14:44:06;4.55;;;2.70;;
63567;SDS011;49715;42.386;20.434;2022-08-14T14:46:35;3.05;;;2.75;;
63567;SDS011;49715;42.386;20.434;2022-08-14T14:49:03;4.03;;;2.70;;
63567;SDS011;49715;42.386;20.434;2022-08-14T14:51:31;2.65;;;2.45;;
63567;SDS011;49715;42.386;20.434;2022-08-14T14:56:25;3.33;;;2.70;;
63567;SDS011;49715;42.386;20.434;2022-08-14T14:58:54;3.95;;;2.65;;
63567;SDS011;49715;42.386;20.434;2022-08-14T15:01:21;3.13;;;2.70;;
63567;SDS011;49715;42.386;20.434;2022-08-14T15:03:49;3.97;;;3.03;;
63567;SDS011;49715;42.386;20.434;2022-08-14T15:06:24;3.47;;;2.85;;
63567;SDS011;49715;42.386;20.434;2022-08-14T15:08:51;3.85;;;2.90;;
63567;SDS011;49715;42.386;20.434;2022-08-14T15:11:20;3.35;;;2.42;;
63567;SDS011;49715;42.386;20.434;2022-08-14T15:13:47;3.50;;;2.90;;
63567;SDS011;49715;42.386;20.434;2022-08-14T15:16:13;3.80;;;3.15;;
63567;SDS011;49715;42.386;20.434;2022-08-14T15:21:06;4.65;;;3.13;;
63567;SDS011;49715;42.386;20.434;2022-08-14T15:23:33;2.85;;;2.65;;
63567;SDS011;49715;42.386;20.434;2022-08-14T15:26:01;3.00;;;2.70;;
63567;SDS011;49715;42.386;20.434;2022-08-14T15:28:28;3.05;;;2.85;;
63567;SDS011;49715;42.386;20.434;2022-08-14T15:30:55;3.05;;;2.75;;
63567;SDS011;49715;42.386;20.434;2022-08-14T15:33:21;3.10;;;2.80;;
63567;SDS011;49715;42.386;20.434;2022-08-14T15:36:08;3.45;;;2.85;;
63567;SDS011;49715;42.386;20.434;2022-08-14T15:38:35;3.38;;;2.72;;
63567;SDS011;49715;42.386;20.434;2022-08-14T15:41:02;4.80;;;3.05;;
63567;SDS011;49715;42.386;20.434;2022-08-14T15:43:30;3.53;;;3.22;;
63567;SDS011;49715;42.386;20.434;2022-08-14T15:45:59;4.13;;;3.83;;
63567;SDS011;49715;42.386;20.434;2022-08-14T15:48:28;4.72;;;4.32;;
63567;SDS011;49715;42.386;20.434;2022-08-14T15:50:56;5.18;;;4.75;;